Bellmore, Indiana
Current Conditions -  °F | °C
As of 3:35 AM on Sunday 21 Dec 2014 (Local Time) from K4I7 Reporting Station
Haze Haze  
Wind Chill: -6°   Ceiling: Unl
Heat Index: -6°   Visibility: 4mi
Dew Point: -8°   Wind: 0mph
Humidity: 86%   Direction: NA
Pressure: 30.29"   Gusts: NA
Location:  39.76°N, 87.11°W
Report Text: K4I7 210835Z AUTO 00000KT 4SM BR CLR M06/M08 A3029 RMK AO2
Loading
Personal Weather Stations






























Interactive Weather Map New forecast layout! Learn more

10-Day Weather Forecast

Advertisements
Track Severe Weather on mobile